createdAt,value
2019-01-25T00:00:54.222Z,41.83
2019-01-25T00:03:21.537Z,44.10
2019-01-25T00:05:48.795Z,44.07
2019-01-25T00:08:16.008Z,42.57
2019-01-25T00:10:43.595Z,44.63
2019-01-25T00:13:10.643Z,40.93
2019-01-25T00:15:38.120Z,44.73
2019-01-25T00:18:06.382Z,44.20
2019-01-25T00:20:33.559Z,39.93
2019-01-25T00:23:00.709Z,46.60
2019-01-25T00:25:27.834Z,42.93
2019-01-25T00:27:55.068Z,42.33
2019-01-25T00:30:22.292Z,50.47
2019-01-25T00:32:49.784Z,47.17
2019-01-25T00:35:17.075Z,55.53
2019-01-25T00:37:44.510Z,45.30
2019-01-25T00:40:12.567Z,44.63
2019-01-25T00:42:39.581Z,49.37
2019-01-25T00:45:07.686Z,51.70
2019-01-25T00:47:35.264Z,47.90
2019-01-25T00:50:03.812Z,46.17
2019-01-25T00:52:31.012Z,44.43
2019-01-25T00:54:58.186Z,44.37
2019-01-25T00:57:25.495Z,45.97
2019-01-25T00:59:53.738Z,44.43
2019-01-25T01:02:20.988Z,46.67
2019-01-25T01:04:48.163Z,47.20
2019-01-25T01:07:15.707Z,46.50
2019-01-25T01:09:42.827Z,46.13
2019-01-25T01:12:09.835Z,48.80
2019-01-25T01:14:37.042Z,45.07
2019-01-25T01:17:04.362Z,45.37
2019-01-25T01:19:31.812Z,44.07
2019-01-25T01:21:59.025Z,46.57
2019-01-25T01:24:26.585Z,46.93
2019-01-25T01:26:53.909Z,50.83
2019-01-25T01:29:20.991Z,45.70
2019-01-25T01:31:48.091Z,49.67
2019-01-25T01:34:15.200Z,44.03
2019-01-25T01:36:42.315Z,46.20
2019-01-25T01:39:09.636Z,50.93
2019-01-25T01:41:37.036Z,47.50
2019-01-25T01:44:04.359Z,46.13
2019-01-25T01:46:31.599Z,44.33
2019-01-25T01:48:59.096Z,42.27
2019-01-25T01:51:26.588Z,46.57
2019-01-25T01:53:53.802Z,45.57
2019-01-25T01:56:21.165Z,51.50
2019-01-25T01:58:48.203Z,46.77
2019-01-25T02:01:15.467Z,45.77
2019-01-25T02:03:42.580Z,49.13
2019-01-25T02:06:09.689Z,48.37
2019-01-25T02:08:36.808Z,45.17
2019-01-25T02:11:04.387Z,45.83
2019-01-25T02:13:31.684Z,45.53
2019-01-25T02:15:58.927Z,45.43
2019-01-25T02:18:26.043Z,49.20
2019-01-25T02:20:53.145Z,42.00
2019-01-25T02:23:20.787Z,47.23
2019-01-25T02:25:47.995Z,47.30
2019-01-25T02:28:15.109Z,47.57
2019-01-25T02:30:42.526Z,41.17
2019-01-25T02:33:09.895Z,42.40
2019-01-25T02:35:37.209Z,43.77
2019-01-25T02:38:04.659Z,48.10
2019-01-25T02:40:38.686Z,44.43
2019-01-25T02:43:01.168Z,43.23
2019-01-25T02:45:28.404Z,50.23
2019-01-25T02:47:55.536Z,45.10
2019-01-25T02:50:23.063Z,44.63
2019-01-25T02:52:50.289Z,41.13
2019-01-25T02:55:20.058Z,42.37
2019-01-25T02:57:47.283Z,44.00
2019-01-25T03:00:19.753Z,45.90
2019-01-25T03:02:47.495Z,44.90
2019-01-25T03:05:16.047Z,40.33
2019-01-25T03:07:43.247Z,38.60
2019-01-25T03:10:10.832Z,42.07
2019-01-25T03:12:38.445Z,45.20
2019-01-25T03:15:08.247Z,49.00
2019-01-25T03:17:35.334Z,46.97
2019-01-25T03:20:03.757Z,40.87
2019-01-25T03:22:31.580Z,44.30
2019-01-25T03:24:58.964Z,42.57
2019-01-25T03:27:26.151Z,48.80
2019-01-25T03:29:53.264Z,45.40
2019-01-25T03:32:20.282Z,44.40
2019-01-25T03:34:47.812Z,47.93
2019-01-25T03:37:14.800Z,52.20
2019-01-25T03:39:41.826Z,42.03
2019-01-25T03:42:09.254Z,49.47
2019-01-25T03:44:36.454Z,44.23
2019-01-25T03:47:03.813Z,46.53
2019-01-25T03:49:31.095Z,44.43
2019-01-25T03:51:58.236Z,47.50
2019-01-25T03:54:25.510Z,48.13
2019-01-25T03:56:52.593Z,42.27
2019-01-25T03:59:19.632Z,45.17
2019-01-25T04:01:46.960Z,43.63
2019-01-25T04:04:14.093Z,45.13
2019-01-25T04:06:41.247Z,42.47
2019-01-25T04:09:09.389Z,43.73
2019-01-25T04:11:36.442Z,47.10
2019-01-25T04:14:03.954Z,45.57
2019-01-25T04:16:31.715Z,38.43
2019-01-25T04:18:58.793Z,42.03
2019-01-25T04:21:25.882Z,42.63
2019-01-25T04:23:53.201Z,44.37
2019-01-25T04:26:20.201Z,42.23
2019-01-25T04:28:47.543Z,41.10
2019-01-25T04:31:15.039Z,42.17
2019-01-25T04:33:42.008Z,40.60
2019-01-25T04:36:09.124Z,43.13
2019-01-25T04:38:36.279Z,40.67
2019-01-25T04:41:11.235Z,43.40
2019-01-25T04:43:32.505Z,41.17
2019-01-25T04:45:59.489Z,40.73
2019-01-25T04:48:26.627Z,39.37
2019-01-25T04:50:53.716Z,42.43
2019-01-25T04:53:21.918Z,38.60
2019-01-25T04:55:49.649Z,37.00
2019-01-25T04:58:18.230Z,39.57
2019-01-25T05:00:45.980Z,43.17
2019-01-25T05:03:13.591Z,41.00
2019-01-25T05:05:40.845Z,38.70
2019-01-25T05:08:10.445Z,41.07
2019-01-25T05:10:37.403Z,42.73
2019-01-25T05:13:04.682Z,39.57
2019-01-25T05:15:32.891Z,42.97
2019-01-25T05:18:00.085Z,41.83
2019-01-25T05:20:27.394Z,43.17
2019-01-25T05:22:56.723Z,44.27
2019-01-25T05:25:25.289Z,44.23
2019-01-25T05:27:52.487Z,39.03
2019-01-25T05:30:19.748Z,41.13
2019-01-25T05:32:46.963Z,44.93
2019-01-25T05:35:15.247Z,40.13
2019-01-25T05:37:42.567Z,40.13
2019-01-25T05:40:11.467Z,42.80
2019-01-25T05:42:38.776Z,37.47
2019-01-25T05:45:08.981Z,40.90
2019-01-25T05:47:35.945Z,40.97
2019-01-25T05:50:04.404Z,41.83
2019-01-25T05:52:31.371Z,39.97
2019-01-25T05:54:58.327Z,41.10
2019-01-25T05:57:25.282Z,43.67
2019-01-25T05:59:52.293Z,44.20
2019-01-25T06:02:19.267Z,38.33
2019-01-25T06:04:46.837Z,39.77
2019-01-25T06:07:14.387Z,41.87
2019-01-25T06:09:41.683Z,43.90
2019-01-25T06:12:09.123Z,42.53
2019-01-25T06:14:41.316Z,40.23
2019-01-25T06:17:08.436Z,41.57
2019-01-25T06:19:37.162Z,40.03
2019-01-25T06:22:04.683Z,39.60
2019-01-25T06:24:31.679Z,37.73
2019-01-25T06:26:58.886Z,36.97
2019-01-25T06:29:30.370Z,34.63
2019-01-25T06:31:57.668Z,36.57
2019-01-25T06:34:25.025Z,36.50
2019-01-25T06:36:52.046Z,34.80
2019-01-25T06:39:19.064Z,37.73
2019-01-25T06:41:46.242Z,36.83
2019-01-25T06:44:13.259Z,37.27
2019-01-25T06:46:40.278Z,37.80
2019-01-25T06:49:08.339Z,39.77
2019-01-25T06:51:35.500Z,37.37
2019-01-25T06:54:02.552Z,33.87
2019-01-25T06:56:29.687Z,37.23
2019-01-25T06:59:05.340Z,35.77
2019-01-25T07:01:43.063Z,37.57
2019-01-25T07:04:10.381Z,37.03
2019-01-25T07:06:37.687Z,43.87
2019-01-25T07:09:08.618Z,44.40
2019-01-25T07:11:42.052Z,44.17
2019-01-25T07:14:04.917Z,41.70
2019-01-25T07:16:32.019Z,43.53
2019-01-25T07:18:59.208Z,43.63
2019-01-25T07:21:26.504Z,43.60
2019-01-25T07:23:53.516Z,41.67
2019-01-25T07:26:21.835Z,42.50
2019-01-25T07:28:48.819Z,44.13
2019-01-25T07:31:15.800Z,43.53
2019-01-25T07:33:43.075Z,46.13
2019-01-25T07:36:10.237Z,44.83
2019-01-25T07:38:37.567Z,44.80
2019-01-25T07:41:04.601Z,43.50
2019-01-25T07:43:31.667Z,42.60
2019-01-25T07:45:58.793Z,44.53
2019-01-25T07:48:26.237Z,40.73
2019-01-25T07:50:53.472Z,43.27
2019-01-25T07:53:22.192Z,43.23
2019-01-25T07:55:49.985Z,33.93
2019-01-25T07:58:17.175Z,30.47
2019-01-25T08:00:44.377Z,38.63
2019-01-25T08:03:11.554Z,35.87
2019-01-25T08:05:38.740Z,36.00
2019-01-25T08:08:05.812Z,41.93
2019-01-25T08:10:33.612Z,39.47
2019-01-25T08:13:01.094Z,38.53
2019-01-25T08:15:28.314Z,38.90
2019-01-25T08:17:55.497Z,35.40
2019-01-25T08:20:22.757Z,39.27
2019-01-25T08:22:50.020Z,37.97
2019-01-25T08:25:17.294Z,38.60
2019-01-25T08:27:44.446Z,33.37
2019-01-25T08:30:13.115Z,31.57
2019-01-25T08:32:40.743Z,35.70
2019-01-25T08:35:10.078Z,33.67
2019-01-25T08:37:37.471Z,37.87
2019-01-25T08:40:05.921Z,35.17
2019-01-25T08:42:33.143Z,30.13
2019-01-25T08:45:00.542Z,38.40
2019-01-25T08:47:28.536Z,34.77
2019-01-25T08:49:58.011Z,34.60
2019-01-25T08:52:24.813Z,32.37
2019-01-25T08:54:52.258Z,36.10
2019-01-25T08:57:19.849Z,34.87
2019-01-25T08:59:47.538Z,35.33
2019-01-25T09:02:14.709Z,38.80
2019-01-25T09:04:41.785Z,36.93
2019-01-25T09:07:08.930Z,37.43
2019-01-25T09:09:36.034Z,39.27
2019-01-25T09:12:03.714Z,33.90
2019-01-25T09:14:31.040Z,28.37
2019-01-25T09:16:58.081Z,34.77
2019-01-25T09:19:25.101Z,33.80
2019-01-25T09:21:52.056Z,34.03
2019-01-25T09:24:19.030Z,33.03
2019-01-25T09:26:46.220Z,35.80
2019-01-25T09:29:13.456Z,32.40
2019-01-25T09:31:40.790Z,29.33
2019-01-25T09:34:07.931Z,33.50
2019-01-25T09:36:34.957Z,35.47
2019-01-25T09:39:04.335Z,34.73
2019-01-25T09:41:31.448Z,30.87
2019-01-25T09:43:58.415Z,34.13
2019-01-25T09:46:25.499Z,37.50
2019-01-25T09:48:52.665Z,31.70
2019-01-25T09:51:19.675Z,32.00
2019-01-25T09:53:47.081Z,34.30
2019-01-25T09:56:14.385Z,31.67
2019-01-25T09:58:43.700Z,31.00
2019-01-25T10:01:12.081Z,36.37
2019-01-25T10:03:39.353Z,37.63
2019-01-25T10:06:06.895Z,34.47
2019-01-25T10:08:34.207Z,31.43
2019-01-25T10:11:01.387Z,29.43
2019-01-25T10:13:28.534Z,32.30
2019-01-25T10:15:55.671Z,30.33
2019-01-25T10:18:24.823Z,31.27
2019-01-25T10:20:51.835Z,31.53
2019-01-25T10:23:18.986Z,31.33
2019-01-25T10:25:46.135Z,28.50
2019-01-25T10:28:13.249Z,32.77
2019-01-25T10:30:40.241Z,33.97
2019-01-25T10:33:07.247Z,31.87
2019-01-25T10:35:34.735Z,34.43
2019-01-25T10:38:02.021Z,33.10
2019-01-25T10:40:29.231Z,35.50
2019-01-25T10:42:56.422Z,34.20
2019-01-25T10:45:26.578Z,36.43
2019-01-25T10:47:53.722Z,41.97
2019-01-25T10:50:20.763Z,38.17
2019-01-25T10:52:48.215Z,36.30
2019-01-25T10:55:15.418Z,34.60
2019-01-25T10:57:42.774Z,40.27
2019-01-25T11:00:12.858Z,41.83
2019-01-25T11:02:39.967Z,45.03
2019-01-25T11:05:09.435Z,40.93
2019-01-25T11:07:36.712Z,46.80
2019-01-25T11:10:04.377Z,40.03
2019-01-25T11:12:31.441Z,40.80
2019-01-25T11:14:59.146Z,43.67
2019-01-25T11:17:26.171Z,46.77
2019-01-25T11:19:53.478Z,48.40
2019-01-25T11:22:20.488Z,44.53
2019-01-25T11:24:47.570Z,40.53
2019-01-25T11:27:14.746Z,42.43
2019-01-25T11:29:41.812Z,43.73
2019-01-25T11:32:09.911Z,42.20
2019-01-25T11:34:37.308Z,40.80
2019-01-25T11:37:04.458Z,41.87
2019-01-25T11:39:31.574Z,41.17
2019-01-25T11:41:58.905Z,39.67
2019-01-25T11:44:25.935Z,36.80
2019-01-25T11:46:53.262Z,40.67
2019-01-25T11:49:20.228Z,41.53
2019-01-25T11:51:47.247Z,45.03
2019-01-25T11:54:14.219Z,44.93
2019-01-25T11:56:41.326Z,42.60
2019-01-25T11:59:08.642Z,43.67
2019-01-25T12:01:35.749Z,44.97
2019-01-25T12:04:03.541Z,39.83
2019-01-25T12:06:30.700Z,40.73
2019-01-25T12:08:57.717Z,41.10
2019-01-25T12:11:25.806Z,42.23
2019-01-25T12:13:52.855Z,38.67
2019-01-25T12:16:20.123Z,43.17
2019-01-25T12:18:47.182Z,39.77
2019-01-25T12:21:14.223Z,45.10
2019-01-25T12:23:41.455Z,41.67
2019-01-25T12:26:08.518Z,43.37
2019-01-25T12:28:35.706Z,46.27
2019-01-25T12:31:02.916Z,45.53
2019-01-25T12:33:30.008Z,46.40
2019-01-25T12:35:57.054Z,45.40
2019-01-25T12:38:24.136Z,49.63
2019-01-25T12:40:51.280Z,53.47
2019-01-25T12:43:23.859Z,49.03
2019-01-25T12:45:50.212Z,52.80
2019-01-25T12:48:16.795Z,52.30
2019-01-25T12:50:59.574Z,59.43
2019-01-25T12:53:26.691Z,50.70
2019-01-25T12:55:53.694Z,54.17
2019-01-25T12:58:20.798Z,55.30
2019-01-25T13:00:50.700Z,52.00
2019-01-25T13:03:18.215Z,55.27
2019-01-25T13:05:45.316Z,54.63
2019-01-25T13:08:12.672Z,54.17
2019-01-25T13:10:41.055Z,58.40
2019-01-25T13:13:08.142Z,50.70
2019-01-25T13:15:35.342Z,56.80
2019-01-25T13:18:03.115Z,53.03
2019-01-25T13:20:30.258Z,55.87
2019-01-25T13:22:57.762Z,53.93
2019-01-25T13:25:24.971Z,52.13
2019-01-25T13:27:52.325Z,49.17
2019-01-25T13:30:21.836Z,49.60
2019-01-25T13:32:49.311Z,51.47
2019-01-25T13:35:16.540Z,55.23
2019-01-25T13:37:43.796Z,52.27
2019-01-25T13:40:13.123Z,57.43
2019-01-25T13:42:40.283Z,52.93
2019-01-25T13:45:08.810Z,57.10
2019-01-25T13:47:36.010Z,65.03
2019-01-25T13:50:05.561Z,65.47
2019-01-25T13:52:32.810Z,62.83
2019-01-25T13:55:00.054Z,60.67
2019-01-25T13:57:27.277Z,59.73
2019-01-25T13:59:54.588Z,59.17
2019-01-25T14:02:22.699Z,62.40
2019-01-25T14:04:49.949Z,59.33
2019-01-25T14:07:20.967Z,62.60
2019-01-25T14:09:46.299Z,62.07
2019-01-25T14:12:13.896Z,68.37
2019-01-25T14:14:40.947Z,62.13
2019-01-25T14:17:08.160Z,70.03
2019-01-25T14:19:35.292Z,72.10
2019-01-25T14:22:02.421Z,68.70
2019-01-25T14:24:29.743Z,67.33
2019-01-25T14:26:56.934Z,70.17
2019-01-25T14:29:29.142Z,68.27
2019-01-25T14:31:53.426Z,73.60
2019-01-25T14:34:21.192Z,79.93
2019-01-25T14:36:48.218Z,71.90
2019-01-25T14:39:15.260Z,78.97
2019-01-25T14:41:42.342Z,74.63
2019-01-25T14:44:09.443Z,72.87
2019-01-25T14:46:36.535Z,71.03
2019-01-25T14:49:03.744Z,77.03
2019-01-25T14:51:31.247Z,72.03
2019-01-25T14:53:58.326Z,79.63
2019-01-25T14:56:25.402Z,84.47
2019-01-25T14:58:52.387Z,77.57
2019-01-25T15:01:19.484Z,81.90
2019-01-25T15:03:47.203Z,79.77
2019-01-25T15:06:14.418Z,80.17
2019-01-25T15:08:41.378Z,70.73
2019-01-25T15:11:08.487Z,73.53
2019-01-25T15:13:35.491Z,74.27
2019-01-25T15:16:02.601Z,73.67
2019-01-25T15:18:29.899Z,77.57
2019-01-25T15:20:56.901Z,82.67
2019-01-25T15:23:24.112Z,84.77
2019-01-25T15:25:51.128Z,78.63
2019-01-25T15:28:18.399Z,78.30
2019-01-25T15:30:45.634Z,73.67
2019-01-25T15:33:12.734Z,88.07
2019-01-25T15:35:39.795Z,72.30
2019-01-25T15:38:07.091Z,70.00
2019-01-25T15:40:34.181Z,67.20
2019-01-25T15:43:01.289Z,62.87
2019-01-25T15:45:28.474Z,66.97
2019-01-25T15:47:55.555Z,65.07
2019-01-25T15:50:24.779Z,65.40
2019-01-25T15:52:52.055Z,67.17
2019-01-25T15:55:19.704Z,55.67
2019-01-25T15:57:46.864Z,67.53
2019-01-25T16:00:16.120Z,62.53
2019-01-25T16:02:43.273Z,63.80
2019-01-25T16:05:12.919Z,61.10
2019-01-25T16:07:40.389Z,61.97
2019-01-25T16:10:09.506Z,54.67
2019-01-25T16:12:36.606Z,57.60
2019-01-25T16:15:05.917Z,58.67
2019-01-25T16:17:33.196Z,61.13
2019-01-25T16:20:00.236Z,57.77
2019-01-25T16:22:27.719Z,59.47
2019-01-25T16:24:54.783Z,61.20
2019-01-25T16:27:21.835Z,56.77
2019-01-25T16:29:48.958Z,61.07
2019-01-25T16:32:16.104Z,64.33
2019-01-25T16:34:43.551Z,59.07
2019-01-25T16:37:10.658Z,65.30
2019-01-25T16:39:37.707Z,62.00
2019-01-25T16:42:05.174Z,58.47
2019-01-25T16:44:32.530Z,63.87
2019-01-25T16:47:00.133Z,63.40
2019-01-25T16:49:27.210Z,54.87
2019-01-25T16:51:54.355Z,62.43
2019-01-25T16:54:22.951Z,55.53
2019-01-25T16:56:50.374Z,63.43
2019-01-25T16:59:17.367Z,60.77
2019-01-25T17:01:44.364Z,58.40
2019-01-25T17:04:11.383Z,58.30
2019-01-25T17:06:38.581Z,54.53
2019-01-25T17:09:06.750Z,57.30
2019-01-25T17:11:33.955Z,60.03
2019-01-25T17:14:01.448Z,57.93
2019-01-25T17:16:28.801Z,53.97
2019-01-25T17:18:55.791Z,58.93
2019-01-25T17:21:23.035Z,58.60
2019-01-25T17:23:50.388Z,59.20
2019-01-25T17:26:18.546Z,58.47
2019-01-25T17:28:45.696Z,53.80
2019-01-25T17:31:12.847Z,54.37
2019-01-25T17:33:39.847Z,59.37
2019-01-25T17:36:06.920Z,59.93
2019-01-25T17:38:34.309Z,55.40
2019-01-25T17:41:01.470Z,55.83
2019-01-25T17:43:28.484Z,52.87
2019-01-25T17:45:55.492Z,60.27
2019-01-25T17:48:22.483Z,57.80
2019-01-25T17:50:49.614Z,60.60
2019-01-25T17:53:16.711Z,58.63
2019-01-25T17:55:43.683Z,55.57
2019-01-25T17:58:11.658Z,58.87
2019-01-25T18:00:51.337Z,61.90
2019-01-25T18:03:18.431Z,60.70
2019-01-25T18:05:45.592Z,55.63
2019-01-25T18:08:12.784Z,64.80
2019-01-25T18:10:40.151Z,66.20
2019-01-25T18:13:07.714Z,65.47
2019-01-25T18:15:34.797Z,57.00
2019-01-25T18:18:01.788Z,60.87
2019-01-25T18:20:29.069Z,58.20
2019-01-25T18:22:56.215Z,59.37
2019-01-25T18:25:27.928Z,55.57
2019-01-25T18:27:58.807Z,56.07
2019-01-25T18:30:41.929Z,55.23
2019-01-25T18:33:08.950Z,49.40
2019-01-25T18:35:36.056Z,52.90
2019-01-25T18:38:04.244Z,57.83
2019-01-25T18:40:31.292Z,55.63
2019-01-25T18:42:58.576Z,56.57
2019-01-25T18:45:25.778Z,55.90
2019-01-25T18:47:53.002Z,55.47
2019-01-25T18:50:20.000Z,57.33
2019-01-25T18:52:47.376Z,51.87
2019-01-25T18:55:16.486Z,55.57
2019-01-25T18:57:43.759Z,49.27
2019-01-25T19:00:16.069Z,59.53
2019-01-25T19:02:43.364Z,47.90
2019-01-25T19:05:10.750Z,54.73
2019-01-25T19:07:37.915Z,50.17
2019-01-25T19:10:07.681Z,56.33
2019-01-25T19:12:35.065Z,52.87
2019-01-25T19:15:04.449Z,56.70
2019-01-25T19:17:32.434Z,51.83
2019-01-25T19:19:59.455Z,53.87
2019-01-25T19:22:26.908Z,53.10
2019-01-25T19:24:54.034Z,61.10
2019-01-25T19:27:21.473Z,49.83
2019-01-25T19:29:48.691Z,55.20
2019-01-25T19:32:16.033Z,51.27
2019-01-25T19:34:43.100Z,51.90
2019-01-25T19:37:10.623Z,52.90
2019-01-25T19:39:37.960Z,56.80
2019-01-25T19:42:05.232Z,53.70
2019-01-25T19:44:32.509Z,52.87
2019-01-25T19:46:59.862Z,53.87
2019-01-25T19:49:27.116Z,55.40
2019-01-25T19:51:54.364Z,53.90
2019-01-25T19:54:22.658Z,53.20
2019-01-25T19:56:49.740Z,58.70
2019-01-25T19:59:16.883Z,58.13
2019-01-25T20:01:44.065Z,56.97
2019-01-25T20:04:11.325Z,59.63
2019-01-25T20:06:38.586Z,61.70
2019-01-25T20:09:08.719Z,59.37
2019-01-25T20:11:35.927Z,59.30
2019-01-25T20:14:03.797Z,57.50
2019-01-25T20:16:31.058Z,57.60
2019-01-25T20:18:58.346Z,58.27
2019-01-25T20:21:25.394Z,59.73
2019-01-25T20:23:52.461Z,60.00
2019-01-25T20:26:21.101Z,58.20
2019-01-25T20:28:48.194Z,57.93
2019-01-25T20:31:15.165Z,59.70
2019-01-25T20:33:42.355Z,62.40
2019-01-25T20:36:09.505Z,60.33
2019-01-25T20:38:38.595Z,59.27
2019-01-25T20:41:07.076Z,62.77
2019-01-25T20:43:34.150Z,63.07
2019-01-25T20:46:01.170Z,69.30
2019-01-25T20:48:28.150Z,58.13
2019-01-25T20:50:56.579Z,65.53
2019-01-25T20:53:23.714Z,67.83
2019-01-25T20:55:50.847Z,62.57
2019-01-25T20:58:17.936Z,65.73
2019-01-25T21:00:45.118Z,68.70
2019-01-25T21:03:14.305Z,61.83
2019-01-25T21:05:41.390Z,68.00
2019-01-25T21:08:08.509Z,71.50
2019-01-25T21:10:35.731Z,64.37
2019-01-25T21:13:03.115Z,62.60
2019-01-25T21:15:35.075Z,69.70
2019-01-25T21:17:59.220Z,68.00
2019-01-25T21:20:29.139Z,63.77
2019-01-25T21:22:56.376Z,63.33
2019-01-25T21:25:24.138Z,67.70
2019-01-25T21:27:51.103Z,66.63
2019-01-25T21:30:20.988Z,66.20
2019-01-25T21:32:48.239Z,66.80
2019-01-25T21:35:15.323Z,70.53
2019-01-25T21:37:42.416Z,61.13
2019-01-25T21:40:12.572Z,62.73
2019-01-25T21:42:40.074Z,61.83
2019-01-25T21:45:09.937Z,66.20
2019-01-25T21:47:36.948Z,59.20
2019-01-25T21:50:06.184Z,61.47
2019-01-25T21:52:33.345Z,60.93
2019-01-25T21:55:00.594Z,63.03
2019-01-25T21:57:28.570Z,57.77
2019-01-25T21:59:55.622Z,59.80
2019-01-25T22:02:22.624Z,68.07
2019-01-25T22:04:49.621Z,60.03
2019-01-25T22:07:16.858Z,56.27
2019-01-25T22:09:43.958Z,63.47
2019-01-25T22:12:11.257Z,61.53
2019-01-25T22:14:38.608Z,65.13
2019-01-25T22:17:06.138Z,57.77
2019-01-25T22:19:33.146Z,56.70
2019-01-25T22:22:00.358Z,52.10
2019-01-25T22:24:28.545Z,55.93
2019-01-25T22:26:55.761Z,58.93
2019-01-25T22:29:23.167Z,56.73
2019-01-25T22:31:50.367Z,56.07
2019-01-25T22:34:17.374Z,55.13
2019-01-25T22:36:44.367Z,56.10
2019-01-25T22:39:11.357Z,60.67
2019-01-25T22:41:38.564Z,57.00
2019-01-25T22:44:05.673Z,55.70
2019-01-25T22:46:33.644Z,54.90
2019-01-25T22:49:00.795Z,47.37
2019-01-25T22:51:28.289Z,50.37
2019-01-25T22:53:55.282Z,54.10
2019-01-25T22:56:22.553Z,49.53
2019-01-25T22:58:49.639Z,50.00
2019-01-25T23:01:29.787Z,55.37
2019-01-25T23:04:44.902Z,46.53
2019-01-25T23:07:23.539Z,44.13
2019-01-25T23:09:55.863Z,50.37
2019-01-25T23:12:22.954Z,42.37
2019-01-25T23:14:50.060Z,45.70
2019-01-25T23:17:17.154Z,39.97
2019-01-25T23:19:44.316Z,43.93
2019-01-25T23:22:12.107Z,41.63
2019-01-25T23:24:39.118Z,40.00
2019-01-25T23:27:06.438Z,38.87
2019-01-25T23:29:33.653Z,34.47
2019-01-25T23:32:00.695Z,35.87
2019-01-25T23:34:27.728Z,33.93
2019-01-25T23:36:56.108Z,33.93
2019-01-25T23:39:23.615Z,36.87
2019-01-25T23:41:50.712Z,37.67
2019-01-25T23:44:17.727Z,34.40
2019-01-25T23:46:45.770Z,31.03
2019-01-25T23:49:12.879Z,28.03
2019-01-25T23:51:40.058Z,32.50
2019-01-25T23:54:07.107Z,31.30
2019-01-25T23:56:34.096Z,31.47
2019-01-25T23:59:01.306Z,28.53
